sensor_id;sensor_type;location;lat;lon;timestamp;P1;durP1;ratioP1;P2;durP2;ratioP2
29574;SDS011;16507;51.046;6.406;2023-09-19T00:00:16;7.22;;;1.98;;
29574;SDS011;16507;51.046;6.406;2023-09-19T00:02:44;10.75;;;2.00;;
29574;SDS011;16507;51.046;6.406;2023-09-19T00:05:12;7.90;;;1.75;;
29574;SDS011;16507;51.046;6.406;2023-09-19T00:07:37;11.80;;;1.70;;
29574;SDS011;16507;51.046;6.406;2023-09-19T00:10:03;7.72;;;1.60;;
29574;SDS011;16507;51.046;6.406;2023-09-19T00:12:29;8.00;;;1.55;;
29574;SDS011;16507;51.046;6.406;2023-09-19T00:14:55;8.65;;;1.88;;
29574;SDS011;16507;51.046;6.406;2023-09-19T00:17:21;6.32;;;1.85;;
29574;SDS011;16507;51.046;6.406;2023-09-19T00:19:47;8.15;;;2.00;;
29574;SDS011;16507;51.046;6.406;2023-09-19T00:22:13;12.90;;;2.28;;
29574;SDS011;16507;51.046;6.406;2023-09-19T00:24:41;11.55;;;2.00;;
29574;SDS011;16507;51.046;6.406;2023-09-19T00:27:06;8.73;;;2.17;;
29574;SDS011;16507;51.046;6.406;2023-09-19T00:29:33;14.05;;;1.95;;
29574;SDS011;16507;51.046;6.406;2023-09-19T00:31:58;8.63;;;1.77;;
29574;SDS011;16507;51.046;6.406;2023-09-19T00:34:24;7.47;;;1.70;;
29574;SDS011;16507;51.046;6.406;2023-09-19T00:36:50;8.15;;;1.88;;
29574;SDS011;16507;51.046;6.406;2023-09-19T00:39:18;12.00;;;2.10;;
29574;SDS011;16507;51.046;6.406;2023-09-19T00:41:45;8.75;;;2.08;;
29574;SDS011;16507;51.046;6.406;2023-09-19T00:44:10;8.73;;;1.67;;
29574;SDS011;16507;51.046;6.406;2023-09-19T00:46:37;8.95;;;2.75;;
29574;SDS011;16507;51.046;6.406;2023-09-19T00:49:02;10.43;;;1.63;;
29574;SDS011;16507;51.046;6.406;2023-09-19T00:51:28;11.80;;;1.77;;
29574;SDS011;16507;51.046;6.406;2023-09-19T00:53:54;22.27;;;1.90;;
29574;SDS011;16507;51.046;6.406;2023-09-19T00:56:20;6.75;;;1.63;;
29574;SDS011;16507;51.046;6.406;2023-09-19T00:58:48;6.50;;;1.65;;
29574;SDS011;16507;51.046;6.406;2023-09-19T01:01:14;8.45;;;1.75;;
29574;SDS011;16507;51.046;6.406;2023-09-19T01:03:40;11.00;;;1.85;;
29574;SDS011;16507;51.046;6.406;2023-09-19T01:06:07;6.78;;;1.80;;
29574;SDS011;16507;51.046;6.406;2023-09-19T01:08:33;6.13;;;1.40;;
29574;SDS011;16507;51.046;6.406;2023-09-19T01:11:23;17.70;;;2.30;;
29574;SDS011;16507;51.046;6.406;2023-09-19T01:16:36;9.05;;;1.92;;
29574;SDS011;16507;51.046;6.406;2023-09-19T01:19:16;7.72;;;1.88;;
29574;SDS011;16507;51.046;6.406;2023-09-19T01:22:13;12.18;;;2.10;;
29574;SDS011;16507;51.046;6.406;2023-09-19T01:30:40;5.30;;;1.70;;
29574;SDS011;16507;51.046;6.406;2023-09-19T01:33:12;9.05;;;1.90;;
29574;SDS011;16507;51.046;6.406;2023-09-19T01:35:38;3.30;;;1.40;;
29574;SDS011;16507;51.046;6.406;2023-09-19T01:38:04;9.48;;;1.70;;
29574;SDS011;16507;51.046;6.406;2023-09-19T01:40:32;12.05;;;2.25;;
29574;SDS011;16507;51.046;6.406;2023-09-19T01:43:12;8.52;;;1.58;;
29574;SDS011;16507;51.046;6.406;2023-09-19T01:46:09;10.63;;;1.50;;
29574;SDS011;16507;51.046;6.406;2023-09-19T01:48:41;6.60;;;1.50;;
29574;SDS011;16507;51.046;6.406;2023-09-19T01:51:13;12.48;;;2.58;;
29574;SDS011;16507;51.046;6.406;2023-09-19T01:56:32;15.43;;;2.10;;
29574;SDS011;16507;51.046;6.406;2023-09-19T01:59:05;17.25;;;2.05;;
29574;SDS011;16507;51.046;6.406;2023-09-19T02:01:36;7.40;;;1.88;;
29574;SDS011;16507;51.046;6.406;2023-09-19T02:04:03;6.72;;;1.90;;
29574;SDS011;16507;51.046;6.406;2023-09-19T02:06:29;6.95;;;1.60;;
29574;SDS011;16507;51.046;6.406;2023-09-19T02:08:54;9.77;;;1.55;;
29574;SDS011;16507;51.046;6.406;2023-09-19T02:11:20;8.07;;;2.05;;
29574;SDS011;16507;51.046;6.406;2023-09-19T02:13:46;6.32;;;1.95;;
29574;SDS011;16507;51.046;6.406;2023-09-19T02:16:12;8.60;;;1.95;;
29574;SDS011;16507;51.046;6.406;2023-09-19T02:18:38;8.75;;;1.58;;
29574;SDS011;16507;51.046;6.406;2023-09-19T02:21:04;4.97;;;2.15;;
29574;SDS011;16507;51.046;6.406;2023-09-19T02:23:31;13.05;;;1.55;;
29574;SDS011;16507;51.046;6.406;2023-09-19T02:25:58;6.05;;;1.35;;
29574;SDS011;16507;51.046;6.406;2023-09-19T02:28:28;9.07;;;2.25;;
29574;SDS011;16507;51.046;6.406;2023-09-19T02:30:55;11.02;;;1.63;;
29574;SDS011;16507;51.046;6.406;2023-09-19T02:33:21;7.38;;;1.75;;
29574;SDS011;16507;51.046;6.406;2023-09-19T02:35:47;12.68;;;1.77;;
29574;SDS011;16507;51.046;6.406;2023-09-19T02:38:12;7.30;;;1.92;;
29574;SDS011;16507;51.046;6.406;2023-09-19T02:40:39;9.23;;;1.85;;
29574;SDS011;16507;51.046;6.406;2023-09-19T02:43:05;12.48;;;1.60;;
29574;SDS011;16507;51.046;6.406;2023-09-19T02:45:31;11.93;;;1.67;;
29574;SDS011;16507;51.046;6.406;2023-09-19T02:47:57;13.25;;;2.55;;
29574;SDS011;16507;51.046;6.406;2023-09-19T02:50:23;9.38;;;1.60;;
29574;SDS011;16507;51.046;6.406;2023-09-19T02:52:49;6.60;;;1.73;;
29574;SDS011;16507;51.046;6.406;2023-09-19T02:55:18;9.55;;;1.80;;
29574;SDS011;16507;51.046;6.406;2023-09-19T02:57:51;13.15;;;2.17;;
29574;SDS011;16507;51.046;6.406;2023-09-19T03:00:19;9.60;;;1.77;;
29574;SDS011;16507;51.046;6.406;2023-09-19T03:02:47;12.48;;;1.77;;
29574;SDS011;16507;51.046;6.406;2023-09-19T03:05:14;8.88;;;2.05;;
29574;SDS011;16507;51.046;6.406;2023-09-19T03:07:40;5.13;;;1.52;;
29574;SDS011;16507;51.046;6.406;2023-09-19T03:10:08;10.02;;;1.88;;
29574;SDS011;16507;51.046;6.406;2023-09-19T03:12:34;10.57;;;2.05;;
29574;SDS011;16507;51.046;6.406;2023-09-19T03:15:00;7.78;;;1.70;;
29574;SDS011;16507;51.046;6.406;2023-09-19T03:17:26;11.88;;;2.35;;
29574;SDS011;16507;51.046;6.406;2023-09-19T03:19:52;13.55;;;1.70;;
29574;SDS011;16507;51.046;6.406;2023-09-19T03:22:19;8.60;;;2.35;;
29574;SDS011;16507;51.046;6.406;2023-09-19T03:24:44;15.20;;;1.95;;
29574;SDS011;16507;51.046;6.406;2023-09-19T03:27:11;7.95;;;2.00;;
29574;SDS011;16507;51.046;6.406;2023-09-19T03:29:39;13.68;;;2.22;;
29574;SDS011;16507;51.046;6.406;2023-09-19T03:32:04;18.75;;;2.63;;
29574;SDS011;16507;51.046;6.406;2023-09-19T03:34:30;8.85;;;2.17;;
29574;SDS011;16507;51.046;6.406;2023-09-19T03:36:56;13.57;;;2.22;;
29574;SDS011;16507;51.046;6.406;2023-09-19T03:39:22;9.13;;;1.55;;
29574;SDS011;16507;51.046;6.406;2023-09-19T03:41:48;9.05;;;1.45;;
29574;SDS011;16507;51.046;6.406;2023-09-19T03:44:14;9.40;;;2.30;;
29574;SDS011;16507;51.046;6.406;2023-09-19T03:46:40;8.73;;;1.77;;
29574;SDS011;16507;51.046;6.406;2023-09-19T03:49:06;17.30;;;2.00;;
29574;SDS011;16507;51.046;6.406;2023-09-19T03:51:31;6.93;;;1.95;;
29574;SDS011;16507;51.046;6.406;2023-09-19T03:53:59;9.85;;;1.95;;
29574;SDS011;16507;51.046;6.406;2023-09-19T03:56:24;15.52;;;2.20;;
29574;SDS011;16507;51.046;6.406;2023-09-19T03:58:50;7.07;;;1.85;;
29574;SDS011;16507;51.046;6.406;2023-09-19T04:01:16;10.65;;;2.30;;
29574;SDS011;16507;51.046;6.406;2023-09-19T04:03:43;7.90;;;2.10;;
29574;SDS011;16507;51.046;6.406;2023-09-19T04:06:15;13.23;;;2.17;;
29574;SDS011;16507;51.046;6.406;2023-09-19T04:08:42;7.28;;;1.60;;
29574;SDS011;16507;51.046;6.406;2023-09-19T04:11:08;8.27;;;1.75;;
29574;SDS011;16507;51.046;6.406;2023-09-19T04:13:34;15.45;;;2.05;;
29574;SDS011;16507;51.046;6.406;2023-09-19T04:16:01;17.85;;;2.00;;
29574;SDS011;16507;51.046;6.406;2023-09-19T04:18:28;6.90;;;2.30;;
29574;SDS011;16507;51.046;6.406;2023-09-19T04:20:56;21.88;;;2.60;;
29574;SDS011;16507;51.046;6.406;2023-09-19T04:23:21;15.65;;;1.90;;
29574;SDS011;16507;51.046;6.406;2023-09-19T04:25:47;23.33;;;2.38;;
29574;SDS011;16507;51.046;6.406;2023-09-19T04:28:13;8.18;;;1.70;;
29574;SDS011;16507;51.046;6.406;2023-09-19T04:30:40;11.48;;;2.33;;
29574;SDS011;16507;51.046;6.406;2023-09-19T04:33:06;10.77;;;2.08;;
29574;SDS011;16507;51.046;6.406;2023-09-19T04:35:32;9.98;;;1.88;;
29574;SDS011;16507;51.046;6.406;2023-09-19T04:37:57;15.40;;;2.22;;
29574;SDS011;16507;51.046;6.406;2023-09-19T04:40:23;17.63;;;2.85;;
29574;SDS011;16507;51.046;6.406;2023-09-19T04:42:57;8.40;;;1.98;;
29574;SDS011;16507;51.046;6.406;2023-09-19T04:45:27;8.27;;;1.75;;
29574;SDS011;16507;51.046;6.406;2023-09-19T04:47:53;8.23;;;2.33;;
29574;SDS011;16507;51.046;6.406;2023-09-19T04:50:19;10.23;;;1.83;;
29574;SDS011;16507;51.046;6.406;2023-09-19T04:52:50;15.18;;;1.95;;
29574;SDS011;16507;51.046;6.406;2023-09-19T04:55:16;9.02;;;1.55;;
29574;SDS011;16507;51.046;6.406;2023-09-19T04:57:51;28.83;;;2.42;;
29574;SDS011;16507;51.046;6.406;2023-09-19T05:00:20;15.32;;;2.20;;
29574;SDS011;16507;51.046;6.406;2023-09-19T05:02:49;17.30;;;2.30;;
29574;SDS011;16507;51.046;6.406;2023-09-19T05:05:16;15.77;;;2.30;;
29574;SDS011;16507;51.046;6.406;2023-09-19T05:07:42;20.25;;;2.13;;
29574;SDS011;16507;51.046;6.406;2023-09-19T05:10:09;17.80;;;2.20;;
29574;SDS011;16507;51.046;6.406;2023-09-19T05:12:37;16.90;;;2.30;;
29574;SDS011;16507;51.046;6.406;2023-09-19T05:15:04;8.32;;;1.98;;
29574;SDS011;16507;51.046;6.406;2023-09-19T05:17:31;9.90;;;2.35;;
29574;SDS011;16507;51.046;6.406;2023-09-19T05:19:58;25.27;;;3.30;;
29574;SDS011;16507;51.046;6.406;2023-09-19T05:22:28;11.45;;;2.22;;
29574;SDS011;16507;51.046;6.406;2023-09-19T05:24:57;19.63;;;2.10;;
29574;SDS011;16507;51.046;6.406;2023-09-19T05:27:22;10.75;;;1.88;;
29574;SDS011;16507;51.046;6.406;2023-09-19T05:29:48;12.88;;;2.55;;
29574;SDS011;16507;51.046;6.406;2023-09-19T05:32:15;11.73;;;1.83;;
29574;SDS011;16507;51.046;6.406;2023-09-19T05:34:42;8.25;;;1.77;;
29574;SDS011;16507;51.046;6.406;2023-09-19T05:37:08;10.50;;;2.47;;
29574;SDS011;16507;51.046;6.406;2023-09-19T05:39:34;10.60;;;2.25;;
29574;SDS011;16507;51.046;6.406;2023-09-19T05:41:59;12.90;;;1.92;;
29574;SDS011;16507;51.046;6.406;2023-09-19T05:44:25;13.80;;;2.05;;
29574;SDS011;16507;51.046;6.406;2023-09-19T05:46:51;6.93;;;2.28;;
29574;SDS011;16507;51.046;6.406;2023-09-19T05:49:17;12.52;;;1.88;;
29574;SDS011;16507;51.046;6.406;2023-09-19T05:51:43;10.70;;;1.50;;
29574;SDS011;16507;51.046;6.406;2023-09-19T05:54:08;21.08;;;2.38;;
29574;SDS011;16507;51.046;6.406;2023-09-19T05:56:36;11.75;;;2.00;;
29574;SDS011;16507;51.046;6.406;2023-09-19T05:59:01;9.60;;;2.22;;
29574;SDS011;16507;51.046;6.406;2023-09-19T06:01:28;14.98;;;2.03;;
29574;SDS011;16507;51.046;6.406;2023-09-19T06:03:57;10.63;;;2.28;;
29574;SDS011;16507;51.046;6.406;2023-09-19T06:06:25;18.00;;;2.63;;
29574;SDS011;16507;51.046;6.406;2023-09-19T06:08:51;11.13;;;2.00;;
29574;SDS011;16507;51.046;6.406;2023-09-19T06:11:17;17.60;;;2.50;;
29574;SDS011;16507;51.046;6.406;2023-09-19T06:13:45;12.80;;;2.25;;
29574;SDS011;16507;51.046;6.406;2023-09-19T06:16:12;11.35;;;2.15;;
29574;SDS011;16507;51.046;6.406;2023-09-19T06:18:38;12.27;;;1.92;;
29574;SDS011;16507;51.046;6.406;2023-09-19T06:21:04;17.05;;;2.15;;
29574;SDS011;16507;51.046;6.406;2023-09-19T06:23:30;14.73;;;2.65;;
29574;SDS011;16507;51.046;6.406;2023-09-19T06:25:56;10.15;;;1.95;;
29574;SDS011;16507;51.046;6.406;2023-09-19T06:28:22;12.02;;;2.47;;
29574;SDS011;16507;51.046;6.406;2023-09-19T06:30:50;9.50;;;2.33;;
29574;SDS011;16507;51.046;6.406;2023-09-19T06:33:17;10.05;;;2.08;;
29574;SDS011;16507;51.046;6.406;2023-09-19T06:35:43;16.83;;;2.83;;
29574;SDS011;16507;51.046;6.406;2023-09-19T06:38:09;12.45;;;1.90;;
29574;SDS011;16507;51.046;6.406;2023-09-19T06:40:38;8.55;;;2.05;;
29574;SDS011;16507;51.046;6.406;2023-09-19T06:43:04;12.13;;;2.15;;
29574;SDS011;16507;51.046;6.406;2023-09-19T06:45:30;14.23;;;1.80;;
29574;SDS011;16507;51.046;6.406;2023-09-19T06:47:57;16.17;;;2.35;;
29574;SDS011;16507;51.046;6.406;2023-09-19T06:50:23;19.45;;;2.38;;
29574;SDS011;16507;51.046;6.406;2023-09-19T06:52:49;10.88;;;1.67;;
29574;SDS011;16507;51.046;6.406;2023-09-19T06:55:16;8.63;;;1.92;;
29574;SDS011;16507;51.046;6.406;2023-09-19T06:57:48;7.20;;;1.40;;
29574;SDS011;16507;51.046;6.406;2023-09-19T07:00:14;10.68;;;2.00;;
29574;SDS011;16507;51.046;6.406;2023-09-19T07:02:43;10.95;;;1.80;;
29574;SDS011;16507;51.046;6.406;2023-09-19T07:05:22;7.30;;;1.85;;
29574;SDS011;16507;51.046;6.406;2023-09-19T07:07:48;12.50;;;2.72;;
29574;SDS011;16507;51.046;6.406;2023-09-19T07:10:13;6.10;;;1.75;;
29574;SDS011;16507;51.046;6.406;2023-09-19T07:12:39;11.38;;;1.95;;
29574;SDS011;16507;51.046;6.406;2023-09-19T07:15:06;12.43;;;2.15;;
29574;SDS011;16507;51.046;6.406;2023-09-19T07:17:32;12.52;;;2.10;;
29574;SDS011;16507;51.046;6.406;2023-09-19T07:19:58;15.48;;;2.40;;
29574;SDS011;16507;51.046;6.406;2023-09-19T07:22:26;9.20;;;1.80;;
29574;SDS011;16507;51.046;6.406;2023-09-19T07:24:52;12.02;;;2.05;;
29574;SDS011;16507;51.046;6.406;2023-09-19T07:27:17;11.25;;;1.85;;
29574;SDS011;16507;51.046;6.406;2023-09-19T07:29:43;6.13;;;1.67;;
29574;SDS011;16507;51.046;6.406;2023-09-19T07:32:09;6.18;;;1.58;;
29574;SDS011;16507;51.046;6.406;2023-09-19T07:34:36;9.75;;;2.20;;
29574;SDS011;16507;51.046;6.406;2023-09-19T07:37:04;6.30;;;2.10;;
29574;SDS011;16507;51.046;6.406;2023-09-19T07:39:29;9.02;;;1.83;;
29574;SDS011;16507;51.046;6.406;2023-09-19T07:41:55;7.80;;;1.90;;
29574;SDS011;16507;51.046;6.406;2023-09-19T07:44:21;5.28;;;1.65;;
29574;SDS011;16507;51.046;6.406;2023-09-19T07:46:47;8.05;;;1.98;;
29574;SDS011;16507;51.046;6.406;2023-09-19T07:49:15;13.25;;;2.67;;
29574;SDS011;16507;51.046;6.406;2023-09-19T07:51:42;8.52;;;1.63;;
29574;SDS011;16507;51.046;6.406;2023-09-19T07:54:11;10.32;;;1.67;;
29574;SDS011;16507;51.046;6.406;2023-09-19T07:56:40;12.38;;;1.75;;
29574;SDS011;16507;51.046;6.406;2023-09-19T07:59:06;13.05;;;2.00;;
29574;SDS011;16507;51.046;6.406;2023-09-19T08:01:31;11.10;;;2.38;;
29574;SDS011;16507;51.046;6.406;2023-09-19T08:03:58;10.27;;;1.77;;
29574;SDS011;16507;51.046;6.406;2023-09-19T08:06:23;6.38;;;1.40;;
29574;SDS011;16507;51.046;6.406;2023-09-19T08:08:52;11.45;;;2.05;;
29574;SDS011;16507;51.046;6.406;2023-09-19T08:11:22;11.73;;;2.53;;
29574;SDS011;16507;51.046;6.406;2023-09-19T08:13:49;12.00;;;1.80;;
29574;SDS011;16507;51.046;6.406;2023-09-19T08:16:15;8.68;;;1.45;;
29574;SDS011;16507;51.046;6.406;2023-09-19T08:18:42;9.98;;;2.28;;
29574;SDS011;16507;51.046;6.406;2023-09-19T08:21:13;11.93;;;1.73;;
29574;SDS011;16507;51.046;6.406;2023-09-19T08:23:39;19.20;;;2.22;;
29574;SDS011;16507;51.046;6.406;2023-09-19T08:26:05;7.72;;;1.92;;
29574;SDS011;16507;51.046;6.406;2023-09-19T08:28:33;11.43;;;2.10;;
29574;SDS011;16507;51.046;6.406;2023-09-19T08:31:03;9.88;;;2.20;;
29574;SDS011;16507;51.046;6.406;2023-09-19T08:33:30;9.82;;;2.10;;
29574;SDS011;16507;51.046;6.406;2023-09-19T08:35:57;8.85;;;1.77;;
29574;SDS011;16507;51.046;6.406;2023-09-19T08:38:23;7.18;;;1.92;;
29574;SDS011;16507;51.046;6.406;2023-09-19T08:40:49;7.35;;;1.83;;
29574;SDS011;16507;51.046;6.406;2023-09-19T08:43:14;8.38;;;1.58;;
29574;SDS011;16507;51.046;6.406;2023-09-19T08:45:40;6.93;;;1.45;;
29574;SDS011;16507;51.046;6.406;2023-09-19T08:50:39;8.35;;;1.95;;
29574;SDS011;16507;51.046;6.406;2023-09-19T08:53:14;13.00;;;2.40;;
29574;SDS011;16507;51.046;6.406;2023-09-19T08:55:47;11.15;;;2.20;;
29574;SDS011;16507;51.046;6.406;2023-09-19T08:58:16;8.70;;;1.83;;
29574;SDS011;16507;51.046;6.406;2023-09-19T09:00:44;8.52;;;1.90;;
29574;SDS011;16507;51.046;6.406;2023-09-19T09:03:14;6.63;;;1.55;;
29574;SDS011;16507;51.046;6.406;2023-09-19T09:05:41;10.80;;;1.83;;
29574;SDS011;16507;51.046;6.406;2023-09-19T09:08:09;9.55;;;2.00;;
29574;SDS011;16507;51.046;6.406;2023-09-19T09:10:38;8.38;;;1.80;;
29574;SDS011;16507;51.046;6.406;2023-09-19T09:13:05;7.90;;;2.08;;
29574;SDS011;16507;51.046;6.406;2023-09-19T09:15:37;8.55;;;1.90;;
29574;SDS011;16507;51.046;6.406;2023-09-19T09:18:03;7.07;;;1.80;;
29574;SDS011;16507;51.046;6.406;2023-09-19T09:20:30;7.22;;;1.63;;
29574;SDS011;16507;51.046;6.406;2023-09-19T09:22:56;7.18;;;1.50;;
29574;SDS011;16507;51.046;6.406;2023-09-19T09:28:13;10.32;;;1.52;;
29574;SDS011;16507;51.046;6.406;2023-09-19T09:30:46;7.13;;;1.80;;
29574;SDS011;16507;51.046;6.406;2023-09-19T09:33:12;5.75;;;1.60;;
29574;SDS011;16507;51.046;6.406;2023-09-19T09:38:28;14.70;;;1.60;;
29574;SDS011;16507;51.046;6.406;2023-09-19T09:41:08;8.25;;;1.75;;
29574;SDS011;16507;51.046;6.406;2023-09-19T09:43:38;25.48;;;2.70;;
29574;SDS011;16507;51.046;6.406;2023-09-19T09:46:16;10.48;;;1.92;;
29574;SDS011;16507;51.046;6.406;2023-09-19T09:48:45;8.20;;;1.65;;
29574;SDS011;16507;51.046;6.406;2023-09-19T09:51:33;10.43;;;2.15;;
29574;SDS011;16507;51.046;6.406;2023-09-19T09:54:15;10.88;;;2.30;;
29574;SDS011;16507;51.046;6.406;2023-09-19T09:56:52;5.63;;;1.70;;
29574;SDS011;16507;51.046;6.406;2023-09-19T10:02:18;8.00;;;1.77;;
29574;SDS011;16507;51.046;6.406;2023-09-19T10:04:54;8.02;;;1.75;;
29574;SDS011;16507;51.046;6.406;2023-09-19T10:07:39;5.20;;;1.40;;
29574;SDS011;16507;51.046;6.406;2023-09-19T10:10:14;8.82;;;1.63;;
29574;SDS011;16507;51.046;6.406;2023-09-19T10:12:46;7.88;;;1.70;;
29574;SDS011;16507;51.046;6.406;2023-09-19T10:15:16;9.48;;;2.13;;
29574;SDS011;16507;51.046;6.406;2023-09-19T10:17:45;9.65;;;1.42;;
29574;SDS011;16507;51.046;6.406;2023-09-19T10:20:16;8.15;;;1.60;;
29574;SDS011;16507;51.046;6.406;2023-09-19T10:22:57;6.53;;;1.27;;
29574;SDS011;16507;51.046;6.406;2023-09-19T10:25:25;4.72;;;1.15;;
29574;SDS011;16507;51.046;6.406;2023-09-19T10:27:53;13.55;;;1.63;;
29574;SDS011;16507;51.046;6.406;2023-09-19T10:30:20;6.13;;;1.92;;
29574;SDS011;16507;51.046;6.406;2023-09-19T10:32:48;6.60;;;1.52;;
29574;SDS011;16507;51.046;6.406;2023-09-19T10:35:26;9.60;;;1.63;;
29574;SDS011;16507;51.046;6.406;2023-09-19T10:37:53;7.20;;;1.92;;
29574;SDS011;16507;51.046;6.406;2023-09-19T10:40:21;14.23;;;2.42;;
29574;SDS011;16507;51.046;6.406;2023-09-19T10:42:56;6.78;;;1.50;;
29574;SDS011;16507;51.046;6.406;2023-09-19T10:45:35;8.90;;;2.08;;
29574;SDS011;16507;51.046;6.406;2023-09-19T10:48:03;3.38;;;1.50;;
29574;SDS011;16507;51.046;6.406;2023-09-19T10:50:31;5.63;;;1.65;;
29574;SDS011;16507;51.046;6.406;2023-09-19T10:53:02;8.52;;;1.73;;
29574;SDS011;16507;51.046;6.406;2023-09-19T10:55:32;6.03;;;1.92;;
29574;SDS011;16507;51.046;6.406;2023-09-19T10:58:00;4.68;;;1.13;;
29574;SDS011;16507;51.046;6.406;2023-09-19T11:00:49;3.88;;;1.30;;
29574;SDS011;16507;51.046;6.406;2023-09-19T11:03:42;14.77;;;2.40;;
29574;SDS011;16507;51.046;6.406;2023-09-19T11:08:51;9.85;;;1.48;;
29574;SDS011;16507;51.046;6.406;2023-09-19T11:14:14;3.97;;;1.38;;
29574;SDS011;16507;51.046;6.406;2023-09-19T11:30:51;7.65;;;1.55;;
29574;SDS011;16507;51.046;6.406;2023-09-19T11:33:23;8.30;;;1.50;;
29574;SDS011;16507;51.046;6.406;2023-09-19T11:36:07;5.53;;;1.42;;
29574;SDS011;16507;51.046;6.406;2023-09-19T11:43:50;3.80;;;1.23;;
29574;SDS011;16507;51.046;6.406;2023-09-19T11:46:16;5.63;;;1.40;;
29574;SDS011;16507;51.046;6.406;2023-09-19T11:48:47;4.03;;;1.27;;
29574;SDS011;16507;51.046;6.406;2023-09-19T11:51:23;5.35;;;1.30;;
29574;SDS011;16507;51.046;6.406;2023-09-19T11:53:53;7.60;;;1.45;;
29574;SDS011;16507;51.046;6.406;2023-09-19T11:56:21;10.90;;;1.35;;
29574;SDS011;16507;51.046;6.406;2023-09-19T11:58:49;9.65;;;1.83;;
29574;SDS011;16507;51.046;6.406;2023-09-19T12:01:23;4.32;;;1.55;;
29574;SDS011;16507;51.046;6.406;2023-09-19T12:03:53;8.30;;;2.45;;
29574;SDS011;16507;51.046;6.406;2023-09-19T12:06:22;10.10;;;1.50;;
29574;SDS011;16507;51.046;6.406;2023-09-19T12:08:49;8.20;;;1.70;;
29574;SDS011;16507;51.046;6.406;2023-09-19T12:11:16;6.93;;;1.40;;
29574;SDS011;16507;51.046;6.406;2023-09-19T12:13:42;5.07;;;1.05;;
29574;SDS011;16507;51.046;6.406;2023-09-19T12:16:16;3.55;;;1.30;;
29574;SDS011;16507;51.046;6.406;2023-09-19T12:18:45;4.10;;;1.05;;
29574;SDS011;16507;51.046;6.406;2023-09-19T12:26:41;4.53;;;1.30;;
29574;SDS011;16507;51.046;6.406;2023-09-19T12:29:12;7.20;;;1.25;;
29574;SDS011;16507;51.046;6.406;2023-09-19T12:31:52;3.15;;;1.02;;
29574;SDS011;16507;51.046;6.406;2023-09-19T12:34:29;2.15;;;0.90;;
29574;SDS011;16507;51.046;6.406;2023-09-19T12:37:05;3.17;;;1.00;;
29574;SDS011;16507;51.046;6.406;2023-09-19T12:39:41;4.55;;;1.38;;
29574;SDS011;16507;51.046;6.406;2023-09-19T12:42:09;1.83;;;0.80;;
29574;SDS011;16507;51.046;6.406;2023-09-19T12:44:40;6.90;;;0.98;;
29574;SDS011;16507;51.046;6.406;2023-09-19T12:47:10;2.22;;;0.90;;
29574;SDS011;16507;51.046;6.406;2023-09-19T12:50:04;5.72;;;1.17;;
29574;SDS011;16507;51.046;6.406;2023-09-19T12:55:06;4.32;;;0.65;;
29574;SDS011;16507;51.046;6.406;2023-09-19T12:57:34;3.55;;;0.68;;
29574;SDS011;16507;51.046;6.406;2023-09-19T13:00:01;5.85;;;1.35;;
29574;SDS011;16507;51.046;6.406;2023-09-19T13:02:31;3.75;;;0.70;;
29574;SDS011;16507;51.046;6.406;2023-09-19T13:04:58;3.58;;;0.73;;
29574;SDS011;16507;51.046;6.406;2023-09-19T13:07:44;3.20;;;1.02;;
29574;SDS011;16507;51.046;6.406;2023-09-19T13:10:14;1.75;;;0.77;;
29574;SDS011;16507;51.046;6.406;2023-09-19T13:12:41;3.83;;;1.00;;
29574;SDS011;16507;51.046;6.406;2023-09-19T13:15:12;3.40;;;1.00;;
29574;SDS011;16507;51.046;6.406;2023-09-19T13:17:48;2.55;;;1.25;;
29574;SDS011;16507;51.046;6.406;2023-09-19T13:20:21;2.92;;;0.40;;
29574;SDS011;16507;51.046;6.406;2023-09-19T13:22:52;3.17;;;0.90;;
29574;SDS011;16507;51.046;6.406;2023-09-19T13:25:35;4.57;;;1.10;;
29574;SDS011;16507;51.046;6.406;2023-09-19T13:28:05;2.88;;;0.90;;
29574;SDS011;16507;51.046;6.406;2023-09-19T13:30:30;7.00;;;0.88;;
29574;SDS011;16507;51.046;6.406;2023-09-19T13:33:06;2.50;;;0.70;;
29574;SDS011;16507;51.046;6.406;2023-09-19T13:35:34;1.95;;;0.95;;
29574;SDS011;16507;51.046;6.406;2023-09-19T13:38:00;1.95;;;0.93;;
29574;SDS011;16507;51.046;6.406;2023-09-19T13:40:26;1.30;;;0.60;;
29574;SDS011;16507;51.046;6.406;2023-09-19T13:42:55;8.75;;;0.95;;
29574;SDS011;16507;51.046;6.406;2023-09-19T13:45:21;1.92;;;0.60;;
29574;SDS011;16507;51.046;6.406;2023-09-19T13:47:49;7.70;;;0.73;;
29574;SDS011;16507;51.046;6.406;2023-09-19T13:50:15;4.63;;;0.90;;
29574;SDS011;16507;51.046;6.406;2023-09-19T13:52:42;1.60;;;0.60;;
29574;SDS011;16507;51.046;6.406;2023-09-19T13:55:07;5.13;;;0.98;;
29574;SDS011;16507;51.046;6.406;2023-09-19T13:57:33;3.40;;;1.05;;
29574;SDS011;16507;51.046;6.406;2023-09-19T13:59:59;4.00;;;0.70;;
29574;SDS011;16507;51.046;6.406;2023-09-19T14:02:24;6.35;;;0.95;;
29574;SDS011;16507;51.046;6.406;2023-09-19T14:04:53;2.50;;;0.90;;
29574;SDS011;16507;51.046;6.406;2023-09-19T14:07:18;10.20;;;0.98;;
29574;SDS011;16507;51.046;6.406;2023-09-19T14:09:45;3.58;;;0.68;;
29574;SDS011;16507;51.046;6.406;2023-09-19T14:12:11;1.65;;;0.60;;
29574;SDS011;16507;51.046;6.406;2023-09-19T14:14:37;3.50;;;0.80;;
29574;SDS011;16507;51.046;6.406;2023-09-19T14:17:03;2.00;;;0.90;;
29574;SDS011;16507;51.046;6.406;2023-09-19T14:19:29;1.00;;;0.40;;
29574;SDS011;16507;51.046;6.406;2023-09-19T14:21:55;1.73;;;0.60;;
29574;SDS011;16507;51.046;6.406;2023-09-19T14:24:21;2.67;;;0.75;;
29574;SDS011;16507;51.046;6.406;2023-09-19T14:26:47;3.50;;;0.90;;
29574;SDS011;16507;51.046;6.406;2023-09-19T14:29:14;3.55;;;0.80;;
29574;SDS011;16507;51.046;6.406;2023-09-19T14:31:40;1.73;;;0.73;;
29574;SDS011;16507;51.046;6.406;2023-09-19T14:34:06;1.10;;;0.55;;
29574;SDS011;16507;51.046;6.406;2023-09-19T14:36:35;1.95;;;0.68;;
29574;SDS011;16507;51.046;6.406;2023-09-19T14:39:01;5.30;;;0.40;;
29574;SDS011;16507;51.046;6.406;2023-09-19T14:41:27;3.83;;;0.70;;
29574;SDS011;16507;51.046;6.406;2023-09-19T14:43:53;3.40;;;0.57;;
29574;SDS011;16507;51.046;6.406;2023-09-19T14:46:20;2.80;;;0.50;;
29574;SDS011;16507;51.046;6.406;2023-09-19T14:48:46;1.35;;;0.30;;
29574;SDS011;16507;51.046;6.406;2023-09-19T14:51:12;3.65;;;0.57;;
29574;SDS011;16507;51.046;6.406;2023-09-19T14:53:39;3.25;;;0.70;;
29574;SDS011;16507;51.046;6.406;2023-09-19T14:56:09;1.50;;;0.43;;
29574;SDS011;16507;51.046;6.406;2023-09-19T14:58:36;2.20;;;0.68;;
29574;SDS011;16507;51.046;6.406;2023-09-19T15:01:08;3.35;;;0.60;;
29574;SDS011;16507;51.046;6.406;2023-09-19T15:03:37;3.45;;;0.50;;
29574;SDS011;16507;51.046;6.406;2023-09-19T15:06:08;3.60;;;0.65;;
29574;SDS011;16507;51.046;6.406;2023-09-19T15:08:36;9.50;;;0.98;;
29574;SDS011;16507;51.046;6.406;2023-09-19T15:11:05;3.72;;;0.65;;
29574;SDS011;16507;51.046;6.406;2023-09-19T15:13:35;7.65;;;0.50;;
29574;SDS011;16507;51.046;6.406;2023-09-19T15:16:01;2.65;;;0.70;;
29574;SDS011;16507;51.046;6.406;2023-09-19T15:18:28;2.38;;;0.93;;
29574;SDS011;16507;51.046;6.406;2023-09-19T15:20:55;1.52;;;0.80;;
29574;SDS011;16507;51.046;6.406;2023-09-19T15:23:21;0.85;;;0.55;;
29574;SDS011;16507;51.046;6.406;2023-09-19T15:25:47;2.15;;;0.50;;
29574;SDS011;16507;51.046;6.406;2023-09-19T15:28:16;3.38;;;0.80;;
29574;SDS011;16507;51.046;6.406;2023-09-19T15:30:43;4.85;;;0.85;;
29574;SDS011;16507;51.046;6.406;2023-09-19T15:33:09;3.05;;;0.65;;
29574;SDS011;16507;51.046;6.406;2023-09-19T15:35:35;2.95;;;0.68;;
29574;SDS011;16507;51.046;6.406;2023-09-19T15:38:02;1.15;;;0.55;;
29574;SDS011;16507;51.046;6.406;2023-09-19T15:40:28;4.18;;;0.85;;
29574;SDS011;16507;51.046;6.406;2023-09-19T15:42:54;2.00;;;0.50;;
29574;SDS011;16507;51.046;6.406;2023-09-19T15:45:21;5.20;;;0.73;;